Davison, Michigan
Current Conditions -  °F | °C
As of 6:13 AM on Monday 22 Dec 2014 (Local Time) from KD95 Reporting Station
Clear Clear  
Wind Chill: 25°   Ceiling: Unl
Heat Index: 25°   Visibility: 7mi
Dew Point: 23°   Wind: 0mph
Humidity: 93%   Direction: NA
Pressure: 30.12"   Gusts: NA
Location:  43.03°N, 83.51°W
Report Text: KD95 221113Z AUTO 00000KT 7SM CLR M04/M05 A3012 RMK AO2 T10401050
Loading
Personal Weather Stations






























Interactive Weather Map New forecast layout! Learn more

10-Day Weather Forecast

Advertisements
Track Severe Weather on mobile